sensor_id;sensor_type;location;lat;lon;timestamp;P1;durP1;ratioP1;P2;durP2;ratioP2
10890;SDS011;5498;50.928;11.598;2022-11-12T00:02:28;12.77;;;7.10;;
10890;SDS011;5498;50.928;11.598;2022-11-12T00:05:30;8.83;;;5.60;;
10890;SDS011;5498;50.928;11.598;2022-11-12T00:08:32;8.47;;;6.10;;
10890;SDS011;5498;50.928;11.598;2022-11-12T00:11:34;12.03;;;6.40;;
10890;SDS011;5498;50.928;11.598;2022-11-12T00:14:38;10.10;;;5.83;;
10890;SDS011;5498;50.928;11.598;2022-11-12T00:17:40;12.27;;;6.63;;
10890;SDS011;5498;50.928;11.598;2022-11-12T00:20:42;10.50;;;6.10;;
10890;SDS011;5498;50.928;11.598;2022-11-12T00:23:44;12.30;;;6.00;;
10890;SDS011;5498;50.928;11.598;2022-11-12T00:26:46;11.40;;;6.33;;
10890;SDS011;5498;50.928;11.598;2022-11-12T00:29:49;10.30;;;6.13;;
10890;SDS011;5498;50.928;11.598;2022-11-12T00:32:51;8.07;;;5.40;;
10890;SDS011;5498;50.928;11.598;2022-11-12T00:35:53;13.67;;;5.53;;
10890;SDS011;5498;50.928;11.598;2022-11-12T00:38:59;7.93;;;5.50;;
10890;SDS011;5498;50.928;11.598;2022-11-12T00:42:02;9.40;;;5.53;;
10890;SDS011;5498;50.928;11.598;2022-11-12T00:45:06;8.77;;;5.47;;
10890;SDS011;5498;50.928;11.598;2022-11-12T00:48:08;11.13;;;6.13;;
10890;SDS011;5498;50.928;11.598;2022-11-12T00:51:10;10.63;;;5.67;;
10890;SDS011;5498;50.928;11.598;2022-11-12T00:54:12;9.50;;;5.40;;
10890;SDS011;5498;50.928;11.598;2022-11-12T00:57:14;10.27;;;5.90;;
10890;SDS011;5498;50.928;11.598;2022-11-12T01:00:18;9.23;;;5.50;;
10890;SDS011;5498;50.928;11.598;2022-11-12T01:03:22;7.47;;;5.13;;
10890;SDS011;5498;50.928;11.598;2022-11-12T01:06:24;8.63;;;5.00;;
10890;SDS011;5498;50.928;11.598;2022-11-12T01:09:26;7.63;;;5.13;;
10890;SDS011;5498;50.928;11.598;2022-11-12T01:12:29;7.50;;;4.93;;
10890;SDS011;5498;50.928;11.598;2022-11-12T01:15:32;7.17;;;5.13;;
10890;SDS011;5498;50.928;11.598;2022-11-12T01:18:34;13.10;;;5.47;;
10890;SDS011;5498;50.928;11.598;2022-11-12T01:21:37;9.70;;;5.23;;
10890;SDS011;5498;50.928;11.598;2022-11-12T01:24:42;8.60;;;5.30;;
10890;SDS011;5498;50.928;11.598;2022-11-12T01:27:44;9.43;;;4.97;;
10890;SDS011;5498;50.928;11.598;2022-11-12T01:30:47;9.47;;;4.97;;
10890;SDS011;5498;50.928;11.598;2022-11-12T01:33:51;7.80;;;5.40;;
10890;SDS011;5498;50.928;11.598;2022-11-12T01:36:55;10.10;;;5.23;;
10890;SDS011;5498;50.928;11.598;2022-11-12T01:39:57;8.03;;;4.80;;
10890;SDS011;5498;50.928;11.598;2022-11-12T01:42:59;8.77;;;5.30;;
10890;SDS011;5498;50.928;11.598;2022-11-12T01:46:03;9.00;;;5.00;;
10890;SDS011;5498;50.928;11.598;2022-11-12T01:49:15;9.30;;;5.23;;
10890;SDS011;5498;50.928;11.598;2022-11-12T01:52:23;7.07;;;4.03;;
10890;SDS011;5498;50.928;11.598;2022-11-12T01:55:33;6.40;;;4.43;;
10890;SDS011;5498;50.928;11.598;2022-11-12T01:58:37;5.83;;;4.70;;
10890;SDS011;5498;50.928;11.598;2022-11-12T02:01:42;8.03;;;5.43;;
10890;SDS011;5498;50.928;11.598;2022-11-12T02:04:44;7.67;;;4.47;;
10890;SDS011;5498;50.928;11.598;2022-11-12T02:07:47;6.93;;;4.63;;
10890;SDS011;5498;50.928;11.598;2022-11-12T02:10:50;9.63;;;4.40;;
10890;SDS011;5498;50.928;11.598;2022-11-12T02:13:52;5.17;;;3.87;;
10890;SDS011;5498;50.928;11.598;2022-11-12T02:17:05;9.60;;;4.77;;
10890;SDS011;5498;50.928;11.598;2022-11-12T02:20:08;8.03;;;4.47;;
10890;SDS011;5498;50.928;11.598;2022-11-12T02:23:12;8.03;;;4.90;;
10890;SDS011;5498;50.928;11.598;2022-11-12T02:26:14;6.13;;;4.23;;
10890;SDS011;5498;50.928;11.598;2022-11-12T02:29:16;8.33;;;4.53;;
10890;SDS011;5498;50.928;11.598;2022-11-12T02:32:18;7.43;;;4.57;;
10890;SDS011;5498;50.928;11.598;2022-11-12T02:35:20;5.53;;;4.73;;
10890;SDS011;5498;50.928;11.598;2022-11-12T02:38:24;8.03;;;5.33;;
10890;SDS011;5498;50.928;11.598;2022-11-12T02:41:27;10.17;;;4.63;;
10890;SDS011;5498;50.928;11.598;2022-11-12T02:44:30;6.57;;;4.70;;
10890;SDS011;5498;50.928;11.598;2022-11-12T02:47:32;6.40;;;4.60;;
10890;SDS011;5498;50.928;11.598;2022-11-12T02:50:34;12.57;;;4.60;;
10890;SDS011;5498;50.928;11.598;2022-11-12T02:53:37;8.40;;;4.30;;
10890;SDS011;5498;50.928;11.598;2022-11-12T02:56:40;10.00;;;4.60;;
10890;SDS011;5498;50.928;11.598;2022-11-12T02:59:41;5.97;;;3.67;;
10890;SDS011;5498;50.928;11.598;2022-11-12T03:02:44;8.77;;;4.40;;
10890;SDS011;5498;50.928;11.598;2022-11-12T03:05:58;6.10;;;4.13;;
10890;SDS011;5498;50.928;11.598;2022-11-12T03:09:05;7.93;;;4.27;;
10890;SDS011;5498;50.928;11.598;2022-11-12T03:12:08;7.10;;;4.37;;
10890;SDS011;5498;50.928;11.598;2022-11-12T03:15:11;8.83;;;4.53;;
10890;SDS011;5498;50.928;11.598;2022-11-12T03:18:13;8.80;;;4.10;;
10890;SDS011;5498;50.928;11.598;2022-11-12T03:21:15;6.67;;;4.37;;
10890;SDS011;5498;50.928;11.598;2022-11-12T03:24:18;8.70;;;4.83;;
10890;SDS011;5498;50.928;11.598;2022-11-12T03:27:20;6.57;;;4.57;;
10890;SDS011;5498;50.928;11.598;2022-11-12T03:30:23;6.63;;;4.60;;
10890;SDS011;5498;50.928;11.598;2022-11-12T03:33:27;5.53;;;4.33;;
10890;SDS011;5498;50.928;11.598;2022-11-12T03:36:29;8.43;;;3.93;;
10890;SDS011;5498;50.928;11.598;2022-11-12T03:39:32;5.83;;;4.03;;
10890;SDS011;5498;50.928;11.598;2022-11-12T03:42:34;10.17;;;4.77;;
10890;SDS011;5498;50.928;11.598;2022-11-12T03:45:36;8.17;;;4.73;;
10890;SDS011;5498;50.928;11.598;2022-11-12T03:48:38;6.13;;;4.37;;
10890;SDS011;5498;50.928;11.598;2022-11-12T03:51:40;6.07;;;3.70;;
10890;SDS011;5498;50.928;11.598;2022-11-12T03:54:43;6.57;;;4.20;;
10890;SDS011;5498;50.928;11.598;2022-11-12T03:57:46;9.43;;;4.00;;
10890;SDS011;5498;50.928;11.598;2022-11-12T04:00:49;5.73;;;4.13;;
10890;SDS011;5498;50.928;11.598;2022-11-12T04:03:51;5.10;;;3.70;;
10890;SDS011;5498;50.928;11.598;2022-11-12T04:06:53;6.23;;;3.90;;
10890;SDS011;5498;50.928;11.598;2022-11-12T04:10:14;4.83;;;3.80;;
10890;SDS011;5498;50.928;11.598;2022-11-12T04:13:16;6.63;;;4.03;;
10890;SDS011;5498;50.928;11.598;2022-11-12T04:16:27;6.37;;;4.17;;
10890;SDS011;5498;50.928;11.598;2022-11-12T04:19:47;5.23;;;3.70;;
10890;SDS011;5498;50.928;11.598;2022-11-12T04:23:07;8.93;;;4.10;;
10890;SDS011;5498;50.928;11.598;2022-11-12T04:26:10;8.63;;;4.30;;
10890;SDS011;5498;50.928;11.598;2022-11-12T04:29:23;6.50;;;3.43;;
10890;SDS011;5498;50.928;11.598;2022-11-12T04:32:45;6.60;;;3.57;;
10890;SDS011;5498;50.928;11.598;2022-11-12T04:35:49;10.90;;;4.67;;
10890;SDS011;5498;50.928;11.598;2022-11-12T04:38:51;8.67;;;4.97;;
10890;SDS011;5498;50.928;11.598;2022-11-12T04:41:54;8.60;;;4.97;;
10890;SDS011;5498;50.928;11.598;2022-11-12T04:45:14;5.83;;;4.10;;
10890;SDS011;5498;50.928;11.598;2022-11-12T04:48:17;8.00;;;4.83;;
10890;SDS011;5498;50.928;11.598;2022-11-12T04:51:20;6.23;;;4.27;;
10890;SDS011;5498;50.928;11.598;2022-11-12T04:54:41;7.03;;;4.00;;
10890;SDS011;5498;50.928;11.598;2022-11-12T04:57:45;8.27;;;4.20;;
10890;SDS011;5498;50.928;11.598;2022-11-12T05:00:47;5.10;;;3.57;;
10890;SDS011;5498;50.928;11.598;2022-11-12T05:03:50;9.13;;;5.33;;
10890;SDS011;5498;50.928;11.598;2022-11-12T05:07:12;16.27;;;8.47;;
10890;SDS011;5498;50.928;11.598;2022-11-12T05:10:14;26.40;;;12.27;;
10890;SDS011;5498;50.928;11.598;2022-11-12T05:13:18;28.77;;;12.87;;
10890;SDS011;5498;50.928;11.598;2022-11-12T05:16:20;28.07;;;14.57;;
10890;SDS011;5498;50.928;11.598;2022-11-12T05:19:22;31.50;;;15.70;;
10890;SDS011;5498;50.928;11.598;2022-11-12T05:22:24;20.67;;;10.87;;
10890;SDS011;5498;50.928;11.598;2022-11-12T05:25:26;12.83;;;5.87;;
10890;SDS011;5498;50.928;11.598;2022-11-12T05:28:30;7.87;;;5.13;;
10890;SDS011;5498;50.928;11.598;2022-11-12T05:31:32;11.17;;;4.67;;
10890;SDS011;5498;50.928;11.598;2022-11-12T05:34:34;7.20;;;4.57;;
10890;SDS011;5498;50.928;11.598;2022-11-12T05:37:36;8.10;;;4.20;;
10890;SDS011;5498;50.928;11.598;2022-11-12T05:40:42;6.60;;;4.73;;
10890;SDS011;5498;50.928;11.598;2022-11-12T05:43:46;8.57;;;4.13;;
10890;SDS011;5498;50.928;11.598;2022-11-12T05:46:48;9.30;;;4.53;;
10890;SDS011;5498;50.928;11.598;2022-11-12T05:49:50;7.63;;;5.23;;
10890;SDS011;5498;50.928;11.598;2022-11-12T05:52:52;8.13;;;4.23;;
10890;SDS011;5498;50.928;11.598;2022-11-12T05:55:59;9.87;;;4.93;;
10890;SDS011;5498;50.928;11.598;2022-11-12T05:59:04;8.70;;;4.93;;
10890;SDS011;5498;50.928;11.598;2022-11-12T06:02:07;10.93;;;4.60;;
10890;SDS011;5498;50.928;11.598;2022-11-12T06:05:09;6.93;;;4.13;;
10890;SDS011;5498;50.928;11.598;2022-11-12T06:08:11;10.07;;;5.87;;
10890;SDS011;5498;50.928;11.598;2022-11-12T06:11:13;12.60;;;5.23;;
10890;SDS011;5498;50.928;11.598;2022-11-12T06:14:16;8.00;;;4.00;;
10890;SDS011;5498;50.928;11.598;2022-11-12T06:17:18;5.37;;;3.93;;
10890;SDS011;5498;50.928;11.598;2022-11-12T06:20:22;4.70;;;3.80;;
10890;SDS011;5498;50.928;11.598;2022-11-12T06:23:24;9.70;;;4.37;;
10890;SDS011;5498;50.928;11.598;2022-11-12T06:26:27;8.70;;;4.90;;
10890;SDS011;5498;50.928;11.598;2022-11-12T06:29:31;10.83;;;5.17;;
10890;SDS011;5498;50.928;11.598;2022-11-12T06:32:33;7.63;;;4.77;;
10890;SDS011;5498;50.928;11.598;2022-11-12T06:35:35;10.20;;;5.43;;
10890;SDS011;5498;50.928;11.598;2022-11-12T06:38:38;10.53;;;4.93;;
10890;SDS011;5498;50.928;11.598;2022-11-12T06:41:41;6.83;;;4.23;;
10890;SDS011;5498;50.928;11.598;2022-11-12T06:44:44;7.87;;;4.63;;
10890;SDS011;5498;50.928;11.598;2022-11-12T06:47:46;6.07;;;4.20;;
10890;SDS011;5498;50.928;11.598;2022-11-12T06:50:48;7.17;;;3.97;;
10890;SDS011;5498;50.928;11.598;2022-11-12T06:53:50;6.27;;;3.73;;
10890;SDS011;5498;50.928;11.598;2022-11-12T06:56:54;9.40;;;4.30;;
10890;SDS011;5498;50.928;11.598;2022-11-12T06:59:57;10.67;;;4.23;;
10890;SDS011;5498;50.928;11.598;2022-11-12T07:03:01;7.77;;;4.73;;
10890;SDS011;5498;50.928;11.598;2022-11-12T07:06:07;9.50;;;4.23;;
10890;SDS011;5498;50.928;11.598;2022-11-12T07:09:11;6.07;;;3.53;;
10890;SDS011;5498;50.928;11.598;2022-11-12T07:12:13;5.10;;;3.70;;
10890;SDS011;5498;50.928;11.598;2022-11-12T07:15:16;5.07;;;3.50;;
10890;SDS011;5498;50.928;11.598;2022-11-12T07:18:19;6.23;;;4.20;;
10890;SDS011;5498;50.928;11.598;2022-11-12T07:21:21;5.57;;;4.23;;
10890;SDS011;5498;50.928;11.598;2022-11-12T07:24:23;9.43;;;5.57;;
10890;SDS011;5498;50.928;11.598;2022-11-12T07:27:27;8.43;;;5.03;;
10890;SDS011;5498;50.928;11.598;2022-11-12T07:30:31;5.07;;;3.30;;
10890;SDS011;5498;50.928;11.598;2022-11-12T07:33:33;5.43;;;3.37;;
10890;SDS011;5498;50.928;11.598;2022-11-12T07:36:36;6.03;;;3.30;;
10890;SDS011;5498;50.928;11.598;2022-11-12T07:39:38;6.13;;;3.27;;
10890;SDS011;5498;50.928;11.598;2022-11-12T07:42:40;6.73;;;3.60;;
10890;SDS011;5498;50.928;11.598;2022-11-12T07:45:44;6.80;;;3.37;;
10890;SDS011;5498;50.928;11.598;2022-11-12T07:48:46;4.63;;;3.17;;
10890;SDS011;5498;50.928;11.598;2022-11-12T07:51:48;5.47;;;3.17;;
10890;SDS011;5498;50.928;11.598;2022-11-12T07:54:50;7.33;;;3.50;;
10890;SDS011;5498;50.928;11.598;2022-11-12T07:57:52;6.40;;;3.73;;
10890;SDS011;5498;50.928;11.598;2022-11-12T08:00:55;10.40;;;3.67;;
10890;SDS011;5498;50.928;11.598;2022-11-12T08:03:58;6.20;;;3.43;;
10890;SDS011;5498;50.928;11.598;2022-11-12T08:07:01;6.40;;;3.63;;
10890;SDS011;5498;50.928;11.598;2022-11-12T08:10:03;8.27;;;4.10;;
10890;SDS011;5498;50.928;11.598;2022-11-12T08:13:06;6.77;;;4.30;;
10890;SDS011;5498;50.928;11.598;2022-11-12T08:16:10;7.27;;;4.30;;
10890;SDS011;5498;50.928;11.598;2022-11-12T08:19:12;7.50;;;3.67;;
10890;SDS011;5498;50.928;11.598;2022-11-12T08:22:15;9.37;;;4.57;;
10890;SDS011;5498;50.928;11.598;2022-11-12T08:25:17;9.40;;;6.53;;
10890;SDS011;5498;50.928;11.598;2022-11-12T08:28:19;7.67;;;4.57;;
10890;SDS011;5498;50.928;11.598;2022-11-12T08:31:22;6.40;;;4.90;;
10890;SDS011;5498;50.928;11.598;2022-11-12T08:34:24;7.37;;;4.70;;
10890;SDS011;5498;50.928;11.598;2022-11-12T08:37:26;9.80;;;6.60;;
10890;SDS011;5498;50.928;11.598;2022-11-12T08:40:29;7.70;;;4.53;;
10890;SDS011;5498;50.928;11.598;2022-11-12T08:43:32;7.30;;;4.43;;
10890;SDS011;5498;50.928;11.598;2022-11-12T08:46:36;8.37;;;4.43;;
10890;SDS011;5498;50.928;11.598;2022-11-12T08:49:38;9.03;;;4.77;;
10890;SDS011;5498;50.928;11.598;2022-11-12T08:52:40;9.23;;;5.40;;
10890;SDS011;5498;50.928;11.598;2022-11-12T08:55:42;6.93;;;4.10;;
10890;SDS011;5498;50.928;11.598;2022-11-12T08:58:44;5.63;;;4.17;;
10890;SDS011;5498;50.928;11.598;2022-11-12T09:01:48;5.13;;;4.30;;
10890;SDS011;5498;50.928;11.598;2022-11-12T09:04:49;5.63;;;3.70;;
10890;SDS011;5498;50.928;11.598;2022-11-12T09:07:55;8.27;;;4.67;;
10890;SDS011;5498;50.928;11.598;2022-11-12T09:10:58;6.23;;;4.23;;
10890;SDS011;5498;50.928;11.598;2022-11-12T09:14:00;9.17;;;4.17;;
10890;SDS011;5498;50.928;11.598;2022-11-12T09:17:05;7.60;;;4.10;;
10890;SDS011;5498;50.928;11.598;2022-11-12T09:20:07;4.90;;;3.20;;
10890;SDS011;5498;50.928;11.598;2022-11-12T09:23:10;5.40;;;3.87;;
10890;SDS011;5498;50.928;11.598;2022-11-12T09:26:14;7.03;;;4.17;;
10890;SDS011;5498;50.928;11.598;2022-11-12T09:29:16;7.23;;;4.00;;
10890;SDS011;5498;50.928;11.598;2022-11-12T09:32:19;8.20;;;4.63;;
10890;SDS011;5498;50.928;11.598;2022-11-12T09:35:21;7.73;;;4.70;;
10890;SDS011;5498;50.928;11.598;2022-11-12T09:38:23;7.80;;;4.50;;
10890;SDS011;5498;50.928;11.598;2022-11-12T09:41:26;7.53;;;4.77;;
10890;SDS011;5498;50.928;11.598;2022-11-12T09:44:33;16.40;;;5.40;;
10890;SDS011;5498;50.928;11.598;2022-11-12T09:47:39;9.50;;;4.87;;
10890;SDS011;5498;50.928;11.598;2022-11-12T09:50:48;6.07;;;4.57;;
10890;SDS011;5498;50.928;11.598;2022-11-12T09:53:56;10.80;;;4.73;;
10890;SDS011;5498;50.928;11.598;2022-11-12T09:57:00;7.57;;;5.77;;
10890;SDS011;5498;50.928;11.598;2022-11-12T10:00:04;11.93;;;4.77;;
10890;SDS011;5498;50.928;11.598;2022-11-12T10:03:19;7.67;;;4.20;;
10890;SDS011;5498;50.928;11.598;2022-11-12T10:06:33;7.50;;;4.37;;
10890;SDS011;5498;50.928;11.598;2022-11-12T10:09:39;9.27;;;4.80;;
10890;SDS011;5498;50.928;11.598;2022-11-12T10:12:57;6.17;;;3.50;;
10890;SDS011;5498;50.928;11.598;2022-11-12T10:16:17;7.97;;;4.77;;
10890;SDS011;5498;50.928;11.598;2022-11-12T10:19:57;6.57;;;4.13;;
10890;SDS011;5498;50.928;11.598;2022-11-12T10:23:13;25.37;;;14.20;;
10890;SDS011;5498;50.928;11.598;2022-11-12T10:26:29;28.92;;;15.59;;
10890;SDS011;5498;50.928;11.598;2022-11-12T10:29:34;15.53;;;8.27;;
10890;SDS011;5498;50.928;11.598;2022-11-12T10:32:41;5.90;;;3.90;;
10890;SDS011;5498;50.928;11.598;2022-11-12T10:35:45;8.37;;;4.73;;
10890;SDS011;5498;50.928;11.598;2022-11-12T10:38:50;9.87;;;3.80;;
10890;SDS011;5498;50.928;11.598;2022-11-12T10:42:00;6.17;;;4.40;;
10890;SDS011;5498;50.928;11.598;2022-11-12T10:45:18;5.67;;;3.90;;
10890;SDS011;5498;50.928;11.598;2022-11-12T10:48:23;6.77;;;3.90;;
10890;SDS011;5498;50.928;11.598;2022-11-12T10:51:34;7.60;;;3.57;;
10890;SDS011;5498;50.928;11.598;2022-11-12T10:54:37;10.47;;;4.40;;
10890;SDS011;5498;50.928;11.598;2022-11-12T10:57:40;13.10;;;4.67;;
10890;SDS011;5498;50.928;11.598;2022-11-12T11:04:03;3.87;;;3.43;;
10890;SDS011;5498;50.928;11.598;2022-11-12T11:07:20;7.23;;;4.83;;
10890;SDS011;5498;50.928;11.598;2022-11-12T11:10:26;8.93;;;5.03;;
10890;SDS011;5498;50.928;11.598;2022-11-12T11:13:30;9.10;;;4.67;;
10890;SDS011;5498;50.928;11.598;2022-11-12T11:16:32;7.13;;;5.23;;
10890;SDS011;5498;50.928;11.598;2022-11-12T11:19:50;7.43;;;5.07;;
10890;SDS011;5498;50.928;11.598;2022-11-12T11:22:54;8.53;;;5.93;;
10890;SDS011;5498;50.928;11.598;2022-11-12T11:26:02;10.00;;;6.07;;
10890;SDS011;5498;50.928;11.598;2022-11-12T11:29:29;16.20;;;9.00;;
10890;SDS011;5498;50.928;11.598;2022-11-12T11:32:57;9.03;;;5.10;;
10890;SDS011;5498;50.928;11.598;2022-11-12T11:36:15;6.77;;;4.70;;
10890;SDS011;5498;50.928;11.598;2022-11-12T11:39:28;8.77;;;5.50;;
10890;SDS011;5498;50.928;11.598;2022-11-12T11:42:46;15.07;;;5.93;;
10890;SDS011;5498;50.928;11.598;2022-11-12T11:46:21;23.07;;;10.33;;
10890;SDS011;5498;50.928;11.598;2022-11-12T11:49:57;10.93;;;6.53;;
10890;SDS011;5498;50.928;11.598;2022-11-12T11:53:15;7.83;;;5.10;;
10890;SDS011;5498;50.928;11.598;2022-11-12T11:56:26;6.90;;;4.10;;
10890;SDS011;5498;50.928;11.598;2022-11-12T11:59:36;8.83;;;4.37;;
10890;SDS011;5498;50.928;11.598;2022-11-12T12:02:58;7.17;;;4.03;;
10890;SDS011;5498;50.928;11.598;2022-11-12T12:06:22;6.93;;;3.53;;
10890;SDS011;5498;50.928;11.598;2022-11-12T12:09:29;6.80;;;4.10;;
10890;SDS011;5498;50.928;11.598;2022-11-12T12:12:45;6.30;;;4.20;;
10890;SDS011;5498;50.928;11.598;2022-11-12T12:16:02;6.53;;;4.20;;
10890;SDS011;5498;50.928;11.598;2022-11-12T12:19:34;10.97;;;4.67;;
10890;SDS011;5498;50.928;11.598;2022-11-12T12:22:52;10.50;;;5.10;;
10890;SDS011;5498;50.928;11.598;2022-11-12T12:25:59;7.40;;;5.13;;
10890;SDS011;5498;50.928;11.598;2022-11-12T12:29:11;8.67;;;4.90;;
10890;SDS011;5498;50.928;11.598;2022-11-12T12:32:19;10.70;;;4.70;;
10890;SDS011;5498;50.928;11.598;2022-11-12T12:35:28;8.70;;;4.93;;
10890;SDS011;5498;50.928;11.598;2022-11-12T12:38:35;8.93;;;5.13;;
10890;SDS011;5498;50.928;11.598;2022-11-12T12:41:45;7.43;;;4.27;;
10890;SDS011;5498;50.928;11.598;2022-11-12T12:44:56;7.77;;;4.70;;
10890;SDS011;5498;50.928;11.598;2022-11-12T12:48:04;5.20;;;4.13;;
10890;SDS011;5498;50.928;11.598;2022-11-12T12:51:14;8.23;;;3.63;;
10890;SDS011;5498;50.928;11.598;2022-11-12T12:57:57;5.30;;;3.33;;
10890;SDS011;5498;50.928;11.598;2022-11-12T13:01:02;4.50;;;3.23;;
10890;SDS011;5498;50.928;11.598;2022-11-12T13:04:09;5.23;;;2.93;;
10890;SDS011;5498;50.928;11.598;2022-11-12T13:07:11;5.23;;;3.93;;
10890;SDS011;5498;50.928;11.598;2022-11-12T13:13:44;6.10;;;3.83;;
10890;SDS011;5498;50.928;11.598;2022-11-12T13:16:57;6.20;;;3.83;;
10890;SDS011;5498;50.928;11.598;2022-11-12T13:20:22;6.50;;;3.80;;
10890;SDS011;5498;50.928;11.598;2022-11-12T13:23:44;7.83;;;3.57;;
10890;SDS011;5498;50.928;11.598;2022-11-12T13:27:05;7.83;;;3.97;;
10890;SDS011;5498;50.928;11.598;2022-11-12T13:30:08;7.13;;;4.20;;
10890;SDS011;5498;50.928;11.598;2022-11-12T13:33:19;6.23;;;4.67;;
10890;SDS011;5498;50.928;11.598;2022-11-12T13:36:26;5.77;;;3.90;;
10890;SDS011;5498;50.928;11.598;2022-11-12T13:39:30;5.97;;;4.33;;
10890;SDS011;5498;50.928;11.598;2022-11-12T13:42:35;11.07;;;4.50;;
10890;SDS011;5498;50.928;11.598;2022-11-12T13:46:16;6.77;;;3.70;;
10890;SDS011;5498;50.928;11.598;2022-11-12T13:49:30;6.47;;;3.50;;
10890;SDS011;5498;50.928;11.598;2022-11-12T13:52:33;5.13;;;3.90;;
10890;SDS011;5498;50.928;11.598;2022-11-12T13:55:36;4.77;;;3.60;;
10890;SDS011;5498;50.928;11.598;2022-11-12T13:58:49;6.03;;;3.90;;
10890;SDS011;5498;50.928;11.598;2022-11-12T14:01:51;8.73;;;4.10;;
10890;SDS011;5498;50.928;11.598;2022-11-12T14:04:55;8.77;;;4.03;;
10890;SDS011;5498;50.928;11.598;2022-11-12T14:08:07;10.53;;;4.70;;
10890;SDS011;5498;50.928;11.598;2022-11-12T14:15:04;8.53;;;4.67;;
10890;SDS011;5498;50.928;11.598;2022-11-12T14:18:20;9.30;;;4.23;;
10890;SDS011;5498;50.928;11.598;2022-11-12T14:21:31;9.27;;;4.60;;
10890;SDS011;5498;50.928;11.598;2022-11-12T14:24:33;7.67;;;4.60;;
10890;SDS011;5498;50.928;11.598;2022-11-12T14:27:35;7.40;;;4.40;;
10890;SDS011;5498;50.928;11.598;2022-11-12T14:30:42;12.97;;;4.83;;
10890;SDS011;5498;50.928;11.598;2022-11-12T14:33:45;8.27;;;5.27;;
10890;SDS011;5498;50.928;11.598;2022-11-12T14:36:48;13.20;;;7.80;;
10890;SDS011;5498;50.928;11.598;2022-11-12T14:39:54;11.40;;;7.37;;
10890;SDS011;5498;50.928;11.598;2022-11-12T14:42:56;44.47;;;27.07;;
10890;SDS011;5498;50.928;11.598;2022-11-12T14:46:00;12.90;;;7.83;;
10890;SDS011;5498;50.928;11.598;2022-11-12T14:49:04;16.27;;;6.93;;
10890;SDS011;5498;50.928;11.598;2022-11-12T14:52:19;8.37;;;5.47;;
10890;SDS011;5498;50.928;11.598;2022-11-12T14:55:25;11.87;;;5.63;;
10890;SDS011;5498;50.928;11.598;2022-11-12T14:58:32;7.60;;;5.33;;
10890;SDS011;5498;50.928;11.598;2022-11-12T15:01:35;10.37;;;6.03;;
10890;SDS011;5498;50.928;11.598;2022-11-12T15:04:40;10.23;;;5.97;;
10890;SDS011;5498;50.928;11.598;2022-11-12T15:07:52;7.83;;;6.53;;
10890;SDS011;5498;50.928;11.598;2022-11-12T15:10:57;11.07;;;6.53;;
10890;SDS011;5498;50.928;11.598;2022-11-12T15:14:23;14.93;;;5.43;;
10890;SDS011;5498;50.928;11.598;2022-11-12T15:17:27;20.40;;;6.50;;
10890;SDS011;5498;50.928;11.598;2022-11-12T15:20:33;19.50;;;6.33;;
10890;SDS011;5498;50.928;11.598;2022-11-12T15:23:36;15.23;;;7.10;;
10890;SDS011;5498;50.928;11.598;2022-11-12T15:26:47;13.80;;;6.83;;
10890;SDS011;5498;50.928;11.598;2022-11-12T15:29:50;18.63;;;7.40;;
10890;SDS011;5498;50.928;11.598;2022-11-12T15:33:16;17.27;;;8.30;;
10890;SDS011;5498;50.928;11.598;2022-11-12T15:36:22;14.97;;;6.33;;
10890;SDS011;5498;50.928;11.598;2022-11-12T15:39:26;11.57;;;5.80;;
10890;SDS011;5498;50.928;11.598;2022-11-12T15:42:30;11.37;;;6.10;;
10890;SDS011;5498;50.928;11.598;2022-11-12T15:45:40;13.23;;;6.00;;
10890;SDS011;5498;50.928;11.598;2022-11-12T15:48:42;12.40;;;7.20;;
10890;SDS011;5498;50.928;11.598;2022-11-12T15:51:45;11.23;;;6.30;;
10890;SDS011;5498;50.928;11.598;2022-11-12T15:54:48;14.67;;;7.73;;
10890;SDS011;5498;50.928;11.598;2022-11-12T15:57:51;12.23;;;8.20;;
10890;SDS011;5498;50.928;11.598;2022-11-12T16:00:53;12.43;;;7.37;;
10890;SDS011;5498;50.928;11.598;2022-11-12T16:03:55;10.87;;;7.13;;
10890;SDS011;5498;50.928;11.598;2022-11-12T16:06:58;14.23;;;7.73;;
10890;SDS011;5498;50.928;11.598;2022-11-12T16:10:01;11.53;;;7.80;;
10890;SDS011;5498;50.928;11.598;2022-11-12T16:13:04;17.43;;;9.10;;
10890;SDS011;5498;50.928;11.598;2022-11-12T16:16:13;14.80;;;8.37;;
10890;SDS011;5498;50.928;11.598;2022-11-12T16:19:15;15.20;;;9.07;;
10890;SDS011;5498;50.928;11.598;2022-11-12T16:22:17;18.73;;;9.83;;
10890;SDS011;5498;50.928;11.598;2022-11-12T16:25:21;12.97;;;8.80;;
10890;SDS011;5498;50.928;11.598;2022-11-12T16:28:25;14.20;;;8.43;;
10890;SDS011;5498;50.928;11.598;2022-11-12T16:31:27;13.73;;;8.27;;
10890;SDS011;5498;50.928;11.598;2022-11-12T16:34:29;12.70;;;8.37;;
10890;SDS011;5498;50.928;11.598;2022-11-12T16:37:31;15.03;;;8.03;;
10890;SDS011;5498;50.928;11.598;2022-11-12T16:40:35;14.67;;;8.30;;
10890;SDS011;5498;50.928;11.598;2022-11-12T16:43:37;16.00;;;10.13;;
10890;SDS011;5498;50.928;11.598;2022-11-12T16:46:39;19.07;;;9.90;;
10890;SDS011;5498;50.928;11.598;2022-11-12T16:49:42;15.43;;;9.53;;
10890;SDS011;5498;50.928;11.598;2022-11-12T16:52:44;12.30;;;9.07;;
10890;SDS011;5498;50.928;11.598;2022-11-12T16:55:48;15.77;;;9.70;;
10890;SDS011;5498;50.928;11.598;2022-11-12T16:58:50;18.07;;;9.63;;
10890;SDS011;5498;50.928;11.598;2022-11-12T17:01:52;15.53;;;9.23;;
10890;SDS011;5498;50.928;11.598;2022-11-12T17:04:55;18.27;;;9.53;;
10890;SDS011;5498;50.928;11.598;2022-11-12T17:07:57;14.93;;;10.03;;
10890;SDS011;5498;50.928;11.598;2022-11-12T17:11:05;17.13;;;9.37;;
10890;SDS011;5498;50.928;11.598;2022-11-12T17:14:09;13.00;;;8.70;;
10890;SDS011;5498;50.928;11.598;2022-11-12T17:17:11;21.37;;;10.87;;
10890;SDS011;5498;50.928;11.598;2022-11-12T17:20:13;14.30;;;8.50;;
10890;SDS011;5498;50.928;11.598;2022-11-12T17:23:15;13.03;;;8.57;;
10890;SDS011;5498;50.928;11.598;2022-11-12T17:26:19;18.07;;;10.43;;
10890;SDS011;5498;50.928;11.598;2022-11-12T17:29:21;28.77;;;16.03;;
10890;SDS011;5498;50.928;11.598;2022-11-12T17:32:23;24.53;;;14.00;;
10890;SDS011;5498;50.928;11.598;2022-11-12T17:35:25;33.90;;;15.13;;
10890;SDS011;5498;50.928;11.598;2022-11-12T17:38:27;27.30;;;15.27;;
10890;SDS011;5498;50.928;11.598;2022-11-12T17:41:31;20.50;;;11.83;;
10890;SDS011;5498;50.928;11.598;2022-11-12T17:44:33;20.27;;;13.07;;
10890;SDS011;5498;50.928;11.598;2022-11-12T17:47:35;21.70;;;11.67;;
10890;SDS011;5498;50.928;11.598;2022-11-12T17:50:37;20.23;;;11.27;;
10890;SDS011;5498;50.928;11.598;2022-11-12T17:53:40;19.47;;;12.13;;
10890;SDS011;5498;50.928;11.598;2022-11-12T17:56:44;25.03;;;14.67;;
10890;SDS011;5498;50.928;11.598;2022-11-12T17:59:46;24.90;;;13.40;;
10890;SDS011;5498;50.928;11.598;2022-11-12T18:02:48;23.67;;;13.60;;
10890;SDS011;5498;50.928;11.598;2022-11-12T18:05:54;23.73;;;13.50;;
10890;SDS011;5498;50.928;11.598;2022-11-12T18:08:58;25.20;;;14.20;;
10890;SDS011;5498;50.928;11.598;2022-11-12T18:12:04;17.97;;;11.87;;
10890;SDS011;5498;50.928;11.598;2022-11-12T18:15:07;17.93;;;12.43;;
10890;SDS011;5498;50.928;11.598;2022-11-12T18:18:10;21.80;;;11.90;;
10890;SDS011;5498;50.928;11.598;2022-11-12T18:21:12;21.90;;;11.80;;
10890;SDS011;5498;50.928;11.598;2022-11-12T18:24:15;22.97;;;13.30;;
10890;SDS011;5498;50.928;11.598;2022-11-12T18:27:18;27.33;;;15.23;;
10890;SDS011;5498;50.928;11.598;2022-11-12T18:30:21;30.00;;;16.23;;
10890;SDS011;5498;50.928;11.598;2022-11-12T18:33:22;26.93;;;15.23;;
10890;SDS011;5498;50.928;11.598;2022-11-12T18:36:25;25.40;;;15.00;;
10890;SDS011;5498;50.928;11.598;2022-11-12T18:39:27;30.17;;;15.70;;
10890;SDS011;5498;50.928;11.598;2022-11-12T18:42:31;32.43;;;16.63;;
10890;SDS011;5498;50.928;11.598;2022-11-12T18:45:33;39.10;;;18.77;;